sensor_id;sensor_type;location;lat;lon;timestamp;temperature;humidity
37002;DHT22;22913;51.910;8.374;2022-10-16T00:01:11;14.50;99.90
37002;DHT22;22913;51.910;8.374;2022-10-16T00:03:58;14.50;99.90
37002;DHT22;22913;51.910;8.374;2022-10-16T00:06:45;14.50;99.90
37002;DHT22;22913;51.910;8.374;2022-10-16T00:09:31;14.50;99.90
37002;DHT22;22913;51.910;8.374;2022-10-16T00:12:16;14.50;99.90
37002;DHT22;22913;51.910;8.374;2022-10-16T00:15:03;14.50;99.90
37002;DHT22;22913;51.910;8.374;2022-10-16T00:17:48;14.50;99.90
37002;DHT22;22913;51.910;8.374;2022-10-16T00:20:34;14.50;99.90
37002;DHT22;22913;51.910;8.374;2022-10-16T00:23:22;14.50;99.90
37002;DHT22;22913;51.910;8.374;2022-10-16T00:26:11;14.50;99.90
37002;DHT22;22913;51.910;8.374;2022-10-16T00:28:57;14.40;99.90
37002;DHT22;22913;51.910;8.374;2022-10-16T00:31:43;14.50;99.90
37002;DHT22;22913;51.910;8.374;2022-10-16T00:34:29;14.50;99.90
37002;DHT22;22913;51.910;8.374;2022-10-16T00:37:15;14.50;99.90
37002;DHT22;22913;51.910;8.374;2022-10-16T00:40:02;14.50;99.90
37002;DHT22;22913;51.910;8.374;2022-10-16T00:42:48;14.40;99.90
37002;DHT22;22913;51.910;8.374;2022-10-16T00:45:35;14.30;99.90
37002;DHT22;22913;51.910;8.374;2022-10-16T00:48:21;14.40;99.90
37002;DHT22;22913;51.910;8.374;2022-10-16T00:51:07;14.30;99.90
37002;DHT22;22913;51.910;8.374;2022-10-16T00:53:53;14.30;99.90
37002;DHT22;22913;51.910;8.374;2022-10-16T00:56:42;14.20;99.90
37002;DHT22;22913;51.910;8.374;2022-10-16T00:59:30;14.20;99.90
37002;DHT22;22913;51.910;8.374;2022-10-16T01:02:17;14.10;99.90
37002;DHT22;22913;51.910;8.374;2022-10-16T01:05:04;14.20;99.90
37002;DHT22;22913;51.910;8.374;2022-10-16T01:07:56;14.20;99.90
37002;DHT22;22913;51.910;8.374;2022-10-16T01:10:54;14.10;99.90
37002;DHT22;22913;51.910;8.374;2022-10-16T01:13:46;14.10;99.90
37002;DHT22;22913;51.910;8.374;2022-10-16T01:16:38;14.10;99.90
37002;DHT22;22913;51.910;8.374;2022-10-16T01:19:35;14.10;99.90
37002;DHT22;22913;51.910;8.374;2022-10-16T01:22:24;14.10;99.90
37002;DHT22;22913;51.910;8.374;2022-10-16T01:25:19;14.10;99.90
37002;DHT22;22913;51.910;8.374;2022-10-16T01:28:11;14.10;99.90
37002;DHT22;22913;51.910;8.374;2022-10-16T01:31:00;14.10;99.90
37002;DHT22;22913;51.910;8.374;2022-10-16T01:33:50;14.00;99.90
37002;DHT22;22913;51.910;8.374;2022-10-16T01:36:39;13.90;99.90
37002;DHT22;22913;51.910;8.374;2022-10-16T01:39:29;14.00;99.90
37002;DHT22;22913;51.910;8.374;2022-10-16T01:42:20;13.90;99.90
37002;DHT22;22913;51.910;8.374;2022-10-16T01:45:11;13.90;99.90
37002;DHT22;22913;51.910;8.374;2022-10-16T01:48:00;13.90;99.90
37002;DHT22;22913;51.910;8.374;2022-10-16T01:50:52;13.90;99.90
37002;DHT22;22913;51.910;8.374;2022-10-16T01:53:40;13.90;99.90
37002;DHT22;22913;51.910;8.374;2022-10-16T01:56:27;13.80;99.90
37002;DHT22;22913;51.910;8.374;2022-10-16T01:59:16;13.80;99.90
37002;DHT22;22913;51.910;8.374;2022-10-16T02:02:08;13.80;99.90
37002;DHT22;22913;51.910;8.374;2022-10-16T02:04:58;13.80;99.90
37002;DHT22;22913;51.910;8.374;2022-10-16T02:07:45;13.80;99.90
37002;DHT22;22913;51.910;8.374;2022-10-16T02:10:31;13.80;99.90
37002;DHT22;22913;51.910;8.374;2022-10-16T02:13:21;13.70;99.90
37002;DHT22;22913;51.910;8.374;2022-10-16T02:16:10;13.70;99.90
37002;DHT22;22913;51.910;8.374;2022-10-16T02:18:57;13.60;99.90
37002;DHT22;22913;51.910;8.374;2022-10-16T02:21:45;13.70;99.90
37002;DHT22;22913;51.910;8.374;2022-10-16T02:24:34;13.60;99.90
37002;DHT22;22913;51.910;8.374;2022-10-16T02:27:27;13.60;99.90
37002;DHT22;22913;51.910;8.374;2022-10-16T02:30:15;13.60;99.90
37002;DHT22;22913;51.910;8.374;2022-10-16T02:33:07;13.70;99.90
37002;DHT22;22913;51.910;8.374;2022-10-16T02:35:55;13.70;99.90
37002;DHT22;22913;51.910;8.374;2022-10-16T02:38:42;13.70;99.90
37002;DHT22;22913;51.910;8.374;2022-10-16T02:41:29;13.70;99.90
37002;DHT22;22913;51.910;8.374;2022-10-16T02:44:15;13.60;99.90
37002;DHT22;22913;51.910;8.374;2022-10-16T02:47:01;13.70;99.90
37002;DHT22;22913;51.910;8.374;2022-10-16T02:49:46;13.70;99.90
37002;DHT22;22913;51.910;8.374;2022-10-16T02:52:33;13.70;99.90
37002;DHT22;22913;51.910;8.374;2022-10-16T02:55:19;13.70;99.90
37002;DHT22;22913;51.910;8.374;2022-10-16T02:58:05;13.60;99.90
37002;DHT22;22913;51.910;8.374;2022-10-16T03:00:51;13.60;99.90
37002;DHT22;22913;51.910;8.374;2022-10-16T03:03:37;13.60;99.90
37002;DHT22;22913;51.910;8.374;2022-10-16T03:06:23;13.60;99.90
37002;DHT22;22913;51.910;8.374;2022-10-16T03:09:10;13.60;99.90
37002;DHT22;22913;51.910;8.374;2022-10-16T03:11:56;13.70;99.90
37002;DHT22;22913;51.910;8.374;2022-10-16T03:14:41;13.60;99.90
37002;DHT22;22913;51.910;8.374;2022-10-16T03:17:27;13.60;99.90
37002;DHT22;22913;51.910;8.374;2022-10-16T03:20:13;13.60;99.90
37002;DHT22;22913;51.910;8.374;2022-10-16T03:22:59;13.50;99.90
37002;DHT22;22913;51.910;8.374;2022-10-16T03:25:48;13.60;99.90
37002;DHT22;22913;51.910;8.374;2022-10-16T03:28:34;13.60;99.90
37002;DHT22;22913;51.910;8.374;2022-10-16T03:31:20;13.60;99.90
37002;DHT22;22913;51.910;8.374;2022-10-16T03:34:06;13.60;99.90
37002;DHT22;22913;51.910;8.374;2022-10-16T03:36:52;13.50;99.90
37002;DHT22;22913;51.910;8.374;2022-10-16T03:39:38;13.50;99.90
37002;DHT22;22913;51.910;8.374;2022-10-16T03:42:25;13.50;99.90
37002;DHT22;22913;51.910;8.374;2022-10-16T03:45:11;13.50;99.90
37002;DHT22;22913;51.910;8.374;2022-10-16T03:47:57;13.60;99.90
37002;DHT22;22913;51.910;8.374;2022-10-16T03:50:43;13.50;99.90
37002;DHT22;22913;51.910;8.374;2022-10-16T03:53:30;13.50;99.90
37002;DHT22;22913;51.910;8.374;2022-10-16T03:56:16;13.60;99.90
37002;DHT22;22913;51.910;8.374;2022-10-16T03:59:03;13.50;99.90
37002;DHT22;22913;51.910;8.374;2022-10-16T04:01:49;13.60;99.90
37002;DHT22;22913;51.910;8.374;2022-10-16T04:04:35;13.60;99.90
37002;DHT22;22913;51.910;8.374;2022-10-16T04:07:20;13.70;99.90
37002;DHT22;22913;51.910;8.374;2022-10-16T04:10:07;13.70;99.90
37002;DHT22;22913;51.910;8.374;2022-10-16T04:12:53;13.70;99.90
37002;DHT22;22913;51.910;8.374;2022-10-16T04:15:41;13.80;99.90
37002;DHT22;22913;51.910;8.374;2022-10-16T04:18:27;13.80;99.90
37002;DHT22;22913;51.910;8.374;2022-10-16T04:21:13;13.80;99.90
37002;DHT22;22913;51.910;8.374;2022-10-16T04:23:59;13.80;99.90
37002;DHT22;22913;51.910;8.374;2022-10-16T04:26:45;13.90;99.90
37002;DHT22;22913;51.910;8.374;2022-10-16T04:29:31;13.90;99.90
37002;DHT22;22913;51.910;8.374;2022-10-16T04:32:18;13.90;99.90
37002;DHT22;22913;51.910;8.374;2022-10-16T04:35:04;14.00;99.90
37002;DHT22;22913;51.910;8.374;2022-10-16T04:37:50;14.00;99.90
37002;DHT22;22913;51.910;8.374;2022-10-16T04:40:36;14.00;99.90
37002;DHT22;22913;51.910;8.374;2022-10-16T04:43:22;14.00;99.90
37002;DHT22;22913;51.910;8.374;2022-10-16T04:46:10;14.00;99.90
37002;DHT22;22913;51.910;8.374;2022-10-16T04:48:58;14.00;99.90
37002;DHT22;22913;51.910;8.374;2022-10-16T04:51:44;14.10;99.90
37002;DHT22;22913;51.910;8.374;2022-10-16T04:54:30;14.00;99.90
37002;DHT22;22913;51.910;8.374;2022-10-16T04:57:16;14.00;99.90
37002;DHT22;22913;51.910;8.374;2022-10-16T05:00:03;14.10;99.90
37002;DHT22;22913;51.910;8.374;2022-10-16T05:02:49;14.00;99.90
37002;DHT22;22913;51.910;8.374;2022-10-16T05:05:37;14.00;99.90
37002;DHT22;22913;51.910;8.374;2022-10-16T05:08:27;13.90;99.90
37002;DHT22;22913;51.910;8.374;2022-10-16T05:11:12;13.90;99.90
37002;DHT22;22913;51.910;8.374;2022-10-16T05:13:59;13.90;99.90
37002;DHT22;22913;51.910;8.374;2022-10-16T05:16:44;13.90;99.90
37002;DHT22;22913;51.910;8.374;2022-10-16T05:19:32;13.90;99.90
37002;DHT22;22913;51.910;8.374;2022-10-16T05:22:19;13.90;99.90
37002;DHT22;22913;51.910;8.374;2022-10-16T05:25:05;13.90;99.90
37002;DHT22;22913;51.910;8.374;2022-10-16T05:27:51;13.80;99.90
37002;DHT22;22913;51.910;8.374;2022-10-16T05:30:37;13.80;99.90
37002;DHT22;22913;51.910;8.374;2022-10-16T05:33:24;13.70;99.90
37002;DHT22;22913;51.910;8.374;2022-10-16T05:36:11;13.70;99.90
37002;DHT22;22913;51.910;8.374;2022-10-16T05:38:58;13.70;99.90
37002;DHT22;22913;51.910;8.374;2022-10-16T05:41:44;13.70;99.90
37002;DHT22;22913;51.910;8.374;2022-10-16T05:44:30;13.70;99.90
37002;DHT22;22913;51.910;8.374;2022-10-16T05:47:16;13.60;99.90
37002;DHT22;22913;51.910;8.374;2022-10-16T05:50:02;13.70;99.90
37002;DHT22;22913;51.910;8.374;2022-10-16T05:52:49;13.60;99.90
37002;DHT22;22913;51.910;8.374;2022-10-16T05:55:37;13.60;99.90
37002;DHT22;22913;51.910;8.374;2022-10-16T05:58:23;13.60;99.90
37002;DHT22;22913;51.910;8.374;2022-10-16T06:01:11;13.60;99.90
37002;DHT22;22913;51.910;8.374;2022-10-16T06:03:57;13.60;99.90
37002;DHT22;22913;51.910;8.374;2022-10-16T06:06:43;13.60;99.90
37002;DHT22;22913;51.910;8.374;2022-10-16T06:09:29;13.60;99.90
37002;DHT22;22913;51.910;8.374;2022-10-16T06:12:16;13.60;99.90
37002;DHT22;22913;51.910;8.374;2022-10-16T06:15:03;13.70;99.90
37002;DHT22;22913;51.910;8.374;2022-10-16T06:17:49;13.60;99.90
37002;DHT22;22913;51.910;8.374;2022-10-16T06:20:35;13.60;99.90
37002;DHT22;22913;51.910;8.374;2022-10-16T06:23:21;13.50;99.90
37002;DHT22;22913;51.910;8.374;2022-10-16T06:26:07;13.50;99.90
37002;DHT22;22913;51.910;8.374;2022-10-16T06:28:56;13.60;99.90
37002;DHT22;22913;51.910;8.374;2022-10-16T06:31:42;13.60;99.90
37002;DHT22;22913;51.910;8.374;2022-10-16T06:34:28;13.60;99.90
37002;DHT22;22913;51.910;8.374;2022-10-16T06:37:14;13.60;99.90
37002;DHT22;22913;51.910;8.374;2022-10-16T06:39:59;13.60;99.90
37002;DHT22;22913;51.910;8.374;2022-10-16T06:42:48;13.70;99.90
37002;DHT22;22913;51.910;8.374;2022-10-16T06:45:37;13.70;99.90
37002;DHT22;22913;51.910;8.374;2022-10-16T06:48:24;13.80;99.90
37002;DHT22;22913;51.910;8.374;2022-10-16T06:51:11;13.80;99.90
37002;DHT22;22913;51.910;8.374;2022-10-16T06:53:57;13.80;99.90
37002;DHT22;22913;51.910;8.374;2022-10-16T06:56:43;13.80;99.90
37002;DHT22;22913;51.910;8.374;2022-10-16T06:59:29;13.90;99.90
37002;DHT22;22913;51.910;8.374;2022-10-16T07:02:16;13.90;99.90
37002;DHT22;22913;51.910;8.374;2022-10-16T07:05:03;14.00;99.90
37002;DHT22;22913;51.910;8.374;2022-10-16T07:07:48;14.00;99.90
37002;DHT22;22913;51.910;8.374;2022-10-16T07:10:35;14.10;99.90
37002;DHT22;22913;51.910;8.374;2022-10-16T07:13:21;14.10;99.90
37002;DHT22;22913;51.910;8.374;2022-10-16T07:16:09;14.10;99.90
37002;DHT22;22913;51.910;8.374;2022-10-16T07:18:57;14.10;99.90
37002;DHT22;22913;51.910;8.374;2022-10-16T07:21:44;14.20;99.90
37002;DHT22;22913;51.910;8.374;2022-10-16T07:24:30;14.30;99.90
37002;DHT22;22913;51.910;8.374;2022-10-16T07:27:15;14.30;99.90
37002;DHT22;22913;51.910;8.374;2022-10-16T07:30:06;14.40;99.90
37002;DHT22;22913;51.910;8.374;2022-10-16T07:32:51;14.40;99.90
37002;DHT22;22913;51.910;8.374;2022-10-16T07:35:38;14.40;99.90
37002;DHT22;22913;51.910;8.374;2022-10-16T07:38:32;14.60;99.90
37002;DHT22;22913;51.910;8.374;2022-10-16T07:41:19;14.60;99.90
37002;DHT22;22913;51.910;8.374;2022-10-16T07:44:05;14.60;99.90
37002;DHT22;22913;51.910;8.374;2022-10-16T07:46:53;14.70;99.90
37002;DHT22;22913;51.910;8.374;2022-10-16T07:49:39;14.70;99.90
37002;DHT22;22913;51.910;8.374;2022-10-16T07:52:26;14.80;99.90
37002;DHT22;22913;51.910;8.374;2022-10-16T07:55:11;14.80;99.90
37002;DHT22;22913;51.910;8.374;2022-10-16T07:57:57;14.70;99.90
37002;DHT22;22913;51.910;8.374;2022-10-16T08:00:42;14.70;99.90
37002;DHT22;22913;51.910;8.374;2022-10-16T08:03:28;14.80;99.90
37002;DHT22;22913;51.910;8.374;2022-10-16T08:06:14;14.80;99.90
37002;DHT22;22913;51.910;8.374;2022-10-16T08:09:01;14.80;99.90
37002;DHT22;22913;51.910;8.374;2022-10-16T08:11:46;14.80;99.90
37002;DHT22;22913;51.910;8.374;2022-10-16T08:14:32;14.90;99.90
37002;DHT22;22913;51.910;8.374;2022-10-16T08:17:18;14.90;99.90
37002;DHT22;22913;51.910;8.374;2022-10-16T08:20:05;14.90;99.90
37002;DHT22;22913;51.910;8.374;2022-10-16T08:22:50;15.00;99.90
37002;DHT22;22913;51.910;8.374;2022-10-16T08:25:37;15.10;99.90
37002;DHT22;22913;51.910;8.374;2022-10-16T08:28:23;15.30;99.90
37002;DHT22;22913;51.910;8.374;2022-10-16T08:31:10;15.30;99.90
37002;DHT22;22913;51.910;8.374;2022-10-16T08:33:56;15.40;99.90
37002;DHT22;22913;51.910;8.374;2022-10-16T08:36:41;15.60;99.90
37002;DHT22;22913;51.910;8.374;2022-10-16T08:39:27;15.70;99.90
37002;DHT22;22913;51.910;8.374;2022-10-16T08:42:29;15.70;99.90
37002;DHT22;22913;51.910;8.374;2022-10-16T08:45:23;15.80;99.90
37002;DHT22;22913;51.910;8.374;2022-10-16T08:48:18;15.80;99.90
37002;DHT22;22913;51.910;8.374;2022-10-16T08:51:07;15.90;99.90
37002;DHT22;22913;51.910;8.374;2022-10-16T08:53:55;16.00;99.90
37002;DHT22;22913;51.910;8.374;2022-10-16T08:56:41;16.10;99.90
37002;DHT22;22913;51.910;8.374;2022-10-16T08:59:28;16.20;99.90
37002;DHT22;22913;51.910;8.374;2022-10-16T09:02:23;16.30;99.90
37002;DHT22;22913;51.910;8.374;2022-10-16T09:05:25;16.40;99.90
37002;DHT22;22913;51.910;8.374;2022-10-16T09:08:20;16.50;99.90
37002;DHT22;22913;51.910;8.374;2022-10-16T09:11:12;16.50;99.90
37002;DHT22;22913;51.910;8.374;2022-10-16T09:14:05;16.50;99.90
37002;DHT22;22913;51.910;8.374;2022-10-16T09:16:58;16.60;99.90
37002;DHT22;22913;51.910;8.374;2022-10-16T09:19:50;16.70;99.90
37002;DHT22;22913;51.910;8.374;2022-10-16T09:22:37;16.70;99.90
37002;DHT22;22913;51.910;8.374;2022-10-16T09:25:23;16.80;99.90
37002;DHT22;22913;51.910;8.374;2022-10-16T09:28:09;16.80;99.90
37002;DHT22;22913;51.910;8.374;2022-10-16T09:30:55;16.90;99.90
37002;DHT22;22913;51.910;8.374;2022-10-16T09:33:43;17.00;99.90
37002;DHT22;22913;51.910;8.374;2022-10-16T09:36:38;17.10;99.90
37002;DHT22;22913;51.910;8.374;2022-10-16T09:39:24;17.20;99.90
37002;DHT22;22913;51.910;8.374;2022-10-16T09:42:11;17.30;99.90
37002;DHT22;22913;51.910;8.374;2022-10-16T09:44:59;17.30;99.90
37002;DHT22;22913;51.910;8.374;2022-10-16T09:47:45;17.40;99.90
37002;DHT22;22913;51.910;8.374;2022-10-16T09:50:32;17.50;99.90
37002;DHT22;22913;51.910;8.374;2022-10-16T09:53:18;17.60;99.90
37002;DHT22;22913;51.910;8.374;2022-10-16T09:56:06;17.70;99.90
37002;DHT22;22913;51.910;8.374;2022-10-16T09:58:55;17.70;99.90
37002;DHT22;22913;51.910;8.374;2022-10-16T10:01:45;17.80;99.90
37002;DHT22;22913;51.910;8.374;2022-10-16T10:04:46;18.00;99.90
37002;DHT22;22913;51.910;8.374;2022-10-16T10:07:38;18.20;99.90
37002;DHT22;22913;51.910;8.374;2022-10-16T10:10:29;18.30;99.90
37002;DHT22;22913;51.910;8.374;2022-10-16T10:13:18;18.40;99.90
37002;DHT22;22913;51.910;8.374;2022-10-16T10:16:05;18.50;99.90
37002;DHT22;22913;51.910;8.374;2022-10-16T10:18:58;18.70;99.90
37002;DHT22;22913;51.910;8.374;2022-10-16T10:21:44;18.80;99.90
37002;DHT22;22913;51.910;8.374;2022-10-16T10:24:30;18.80;99.90
37002;DHT22;22913;51.910;8.374;2022-10-16T10:27:17;18.90;99.90
37002;DHT22;22913;51.910;8.374;2022-10-16T10:30:06;19.00;99.90
37002;DHT22;22913;51.910;8.374;2022-10-16T10:33:09;19.20;99.90
37002;DHT22;22913;51.910;8.374;2022-10-16T10:36:06;19.50;99.90
37002;DHT22;22913;51.910;8.374;2022-10-16T10:38:58;19.60;99.90
37002;DHT22;22913;51.910;8.374;2022-10-16T10:42:08;19.80;99.90
37002;DHT22;22913;51.910;8.374;2022-10-16T10:45:26;19.90;99.90
37002;DHT22;22913;51.910;8.374;2022-10-16T10:48:34;20.20;99.90
37002;DHT22;22913;51.910;8.374;2022-10-16T10:51:32;20.40;99.90
37002;DHT22;22913;51.910;8.374;2022-10-16T10:54:28;20.50;99.90
37002;DHT22;22913;51.910;8.374;2022-10-16T10:57:22;20.60;99.90
37002;DHT22;22913;51.910;8.374;2022-10-16T11:00:17;20.90;99.90
37002;DHT22;22913;51.910;8.374;2022-10-16T11:03:13;21.00;99.90
37002;DHT22;22913;51.910;8.374;2022-10-16T11:06:07;21.20;99.90
37002;DHT22;22913;51.910;8.374;2022-10-16T11:08:55;21.60;99.90
37002;DHT22;22913;51.910;8.374;2022-10-16T11:11:45;21.90;99.90
37002;DHT22;22913;51.910;8.374;2022-10-16T11:14:40;22.20;99.90
37002;DHT22;22913;51.910;8.374;2022-10-16T11:17:29;22.50;99.90
37002;DHT22;22913;51.910;8.374;2022-10-16T11:20:19;23.00;99.90
37002;DHT22;22913;51.910;8.374;2022-10-16T11:23:12;22.90;99.90
37002;DHT22;22913;51.910;8.374;2022-10-16T11:26:02;23.50;99.90
37002;DHT22;22913;51.910;8.374;2022-10-16T11:28:51;23.80;99.90
37002;DHT22;22913;51.910;8.374;2022-10-16T11:31:45;23.90;99.90
37002;DHT22;22913;51.910;8.374;2022-10-16T11:34:37;23.40;99.90
37002;DHT22;22913;51.910;8.374;2022-10-16T11:37:31;23.10;99.90
37002;DHT22;22913;51.910;8.374;2022-10-16T11:40:22;22.90;99.90
37002;DHT22;22913;51.910;8.374;2022-10-16T11:43:14;22.80;99.90
37002;DHT22;22913;51.910;8.374;2022-10-16T11:46:07;22.60;99.90
37002;DHT22;22913;51.910;8.374;2022-10-16T11:49:00;22.70;99.90
37002;DHT22;22913;51.910;8.374;2022-10-16T11:51:53;23.00;99.90
37002;DHT22;22913;51.910;8.374;2022-10-16T11:54:49;23.60;99.90
37002;DHT22;22913;51.910;8.374;2022-10-16T11:57:40;24.20;99.90
37002;DHT22;22913;51.910;8.374;2022-10-16T12:00:29;24.50;99.90
37002;DHT22;22913;51.910;8.374;2022-10-16T12:03:22;24.70;99.90
37002;DHT22;22913;51.910;8.374;2022-10-16T12:06:22;24.80;99.90
37002;DHT22;22913;51.910;8.374;2022-10-16T12:09:15;25.40;99.90
37002;DHT22;22913;51.910;8.374;2022-10-16T12:12:01;25.50;99.90
37002;DHT22;22913;51.910;8.374;2022-10-16T12:14:46;25.50;99.90
37002;DHT22;22913;51.910;8.374;2022-10-16T12:17:36;25.30;99.90
37002;DHT22;22913;51.910;8.374;2022-10-16T12:20:26;25.60;99.90
37002;DHT22;22913;51.910;8.374;2022-10-16T12:23:20;25.80;99.90
37002;DHT22;22913;51.910;8.374;2022-10-16T12:26:07;25.90;99.90
37002;DHT22;22913;51.910;8.374;2022-10-16T12:28:54;25.70;99.90
37002;DHT22;22913;51.910;8.374;2022-10-16T12:31:44;25.40;99.90
37002;DHT22;22913;51.910;8.374;2022-10-16T12:34:37;25.70;99.90
37002;DHT22;22913;51.910;8.374;2022-10-16T12:37:26;26.20;99.90
37002;DHT22;22913;51.910;8.374;2022-10-16T12:40:16;26.60;99.90
37002;DHT22;22913;51.910;8.374;2022-10-16T12:43:23;26.40;99.90
37002;DHT22;22913;51.910;8.374;2022-10-16T12:49:31;26.30;99.90
37002;DHT22;22913;51.910;8.374;2022-10-16T12:52:26;26.20;99.90
37002;DHT22;22913;51.910;8.374;2022-10-16T12:55:17;26.20;99.90
37002;DHT22;22913;51.910;8.374;2022-10-16T12:58:12;25.80;99.90
37002;DHT22;22913;51.910;8.374;2022-10-16T13:01:09;25.70;99.90
37002;DHT22;22913;51.910;8.374;2022-10-16T13:04:29;25.80;99.90
37002;DHT22;22913;51.910;8.374;2022-10-16T13:07:31;25.90;99.90
37002;DHT22;22913;51.910;8.374;2022-10-16T13:10:26;26.40;99.90
37002;DHT22;22913;51.910;8.374;2022-10-16T13:16:35;26.90;99.90
37002;DHT22;22913;51.910;8.374;2022-10-16T13:19:32;27.20;99.90
37002;DHT22;22913;51.910;8.374;2022-10-16T13:22:27;27.90;99.90
37002;DHT22;22913;51.910;8.374;2022-10-16T13:25:25;28.50;99.90
37002;DHT22;22913;51.910;8.374;2022-10-16T13:28:13;28.60;99.90
37002;DHT22;22913;51.910;8.374;2022-10-16T13:31:00;28.40;99.90
37002;DHT22;22913;51.910;8.374;2022-10-16T13:33:48;28.00;99.90
37002;DHT22;22913;51.910;8.374;2022-10-16T13:36:43;27.60;99.90
37002;DHT22;22913;51.910;8.374;2022-10-16T13:39:29;26.90;99.90
37002;DHT22;22913;51.910;8.374;2022-10-16T13:42:22;25.20;99.90
37002;DHT22;22913;51.910;8.374;2022-10-16T13:45:18;24.50;99.90
37002;DHT22;22913;51.910;8.374;2022-10-16T13:48:05;24.60;99.90
37002;DHT22;22913;51.910;8.374;2022-10-16T13:51:01;24.60;99.90
37002;DHT22;22913;51.910;8.374;2022-10-16T13:53:47;24.90;99.90
37002;DHT22;22913;51.910;8.374;2022-10-16T13:56:33;25.50;99.90
37002;DHT22;22913;51.910;8.374;2022-10-16T13:59:32;26.10;99.90
37002;DHT22;22913;51.910;8.374;2022-10-16T14:02:22;26.80;99.90
37002;DHT22;22913;51.910;8.374;2022-10-16T14:05:10;26.90;99.90
37002;DHT22;22913;51.910;8.374;2022-10-16T14:07:58;27.10;99.90
37002;DHT22;22913;51.910;8.374;2022-10-16T14:10:48;27.20;99.90
37002;DHT22;22913;51.910;8.374;2022-10-16T14:13:38;27.40;99.90
37002;DHT22;22913;51.910;8.374;2022-10-16T14:16:27;27.50;99.90
37002;DHT22;22913;51.910;8.374;2022-10-16T14:19:19;26.90;99.90
37002;DHT22;22913;51.910;8.374;2022-10-16T14:22:23;27.20;99.90
37002;DHT22;22913;51.910;8.374;2022-10-16T14:25:22;27.30;99.90
37002;DHT22;22913;51.910;8.374;2022-10-16T14:28:16;27.70;99.90
37002;DHT22;22913;51.910;8.374;2022-10-16T14:31:25;27.60;99.90
37002;DHT22;22913;51.910;8.374;2022-10-16T14:34:28;27.90;99.90
37002;DHT22;22913;51.910;8.374;2022-10-16T14:37:21;27.30;99.90
37002;DHT22;22913;51.910;8.374;2022-10-16T14:40:14;27.70;99.90
37002;DHT22;22913;51.910;8.374;2022-10-16T14:43:00;27.60;99.90
37002;DHT22;22913;51.910;8.374;2022-10-16T14:45:51;27.50;99.90
37002;DHT22;22913;51.910;8.374;2022-10-16T14:48:40;28.00;99.90
37002;DHT22;22913;51.910;8.374;2022-10-16T14:51:26;28.40;99.90
37002;DHT22;22913;51.910;8.374;2022-10-16T14:54:13;28.50;99.90
37002;DHT22;22913;51.910;8.374;2022-10-16T14:56:59;27.90;99.90
37002;DHT22;22913;51.910;8.374;2022-10-16T14:59:45;26.90;99.90
37002;DHT22;22913;51.910;8.374;2022-10-16T15:02:32;26.10;99.90
37002;DHT22;22913;51.910;8.374;2022-10-16T15:05:21;26.00;99.90
37002;DHT22;22913;51.910;8.374;2022-10-16T15:08:07;26.20;99.90
37002;DHT22;22913;51.910;8.374;2022-10-16T15:10:53;26.40;99.90
37002;DHT22;22913;51.910;8.374;2022-10-16T15:13:39;27.30;99.90
37002;DHT22;22913;51.910;8.374;2022-10-16T15:16:24;28.40;99.90
37002;DHT22;22913;51.910;8.374;2022-10-16T15:19:10;28.60;99.90
37002;DHT22;22913;51.910;8.374;2022-10-16T15:21:57;28.90;99.90
37002;DHT22;22913;51.910;8.374;2022-10-16T15:24:43;29.30;99.90
37002;DHT22;22913;51.910;8.374;2022-10-16T15:27:28;29.30;99.90
37002;DHT22;22913;51.910;8.374;2022-10-16T15:30:14;28.70;99.90
37002;DHT22;22913;51.910;8.374;2022-10-16T15:32:59;27.50;99.90
37002;DHT22;22913;51.910;8.374;2022-10-16T15:35:47;26.50;99.90
37002;DHT22;22913;51.910;8.374;2022-10-16T15:38:34;25.60;99.90
37002;DHT22;22913;51.910;8.374;2022-10-16T15:41:21;24.70;99.90
37002;DHT22;22913;51.910;8.374;2022-10-16T15:44:06;24.20;99.90
37002;DHT22;22913;51.910;8.374;2022-10-16T15:46:54;23.90;99.90
37002;DHT22;22913;51.910;8.374;2022-10-16T15:49:40;23.50;99.90
37002;DHT22;22913;51.910;8.374;2022-10-16T15:52:26;23.20;99.90
37002;DHT22;22913;51.910;8.374;2022-10-16T15:55:14;23.00;99.90
37002;DHT22;22913;51.910;8.374;2022-10-16T15:58:00;22.80;99.90
37002;DHT22;22913;51.910;8.374;2022-10-16T16:00:53;22.70;99.90
37002;DHT22;22913;51.910;8.374;2022-10-16T16:03:39;22.40;99.90
37002;DHT22;22913;51.910;8.374;2022-10-16T16:06:25;22.30;99.90
37002;DHT22;22913;51.910;8.374;2022-10-16T16:09:10;22.10;99.90
37002;DHT22;22913;51.910;8.374;2022-10-16T16:11:58;22.00;99.90
37002;DHT22;22913;51.910;8.374;2022-10-16T16:14:45;21.80;99.90
37002;DHT22;22913;51.910;8.374;2022-10-16T16:17:32;21.70;99.90
37002;DHT22;22913;51.910;8.374;2022-10-16T16:20:18;21.60;99.90
37002;DHT22;22913;51.910;8.374;2022-10-16T16:23:04;21.50;99.90
37002;DHT22;22913;51.910;8.374;2022-10-16T16:26:09;21.30;99.90
37002;DHT22;22913;51.910;8.374;2022-10-16T16:28:57;21.20;99.90
37002;DHT22;22913;51.910;8.374;2022-10-16T16:31:43;21.00;99.90
37002;DHT22;22913;51.910;8.374;2022-10-16T16:34:31;20.90;99.90
37002;DHT22;22913;51.910;8.374;2022-10-16T16:37:16;20.80;99.90
37002;DHT22;22913;51.910;8.374;2022-10-16T16:40:02;20.70;99.90
37002;DHT22;22913;51.910;8.374;2022-10-16T16:42:48;20.60;99.90
37002;DHT22;22913;51.910;8.374;2022-10-16T16:45:36;20.60;99.90
37002;DHT22;22913;51.910;8.374;2022-10-16T16:48:22;20.50;99.90
37002;DHT22;22913;51.910;8.374;2022-10-16T16:51:09;20.40;99.90
37002;DHT22;22913;51.910;8.374;2022-10-16T16:53:59;20.30;99.90
37002;DHT22;22913;51.910;8.374;2022-10-16T16:56:45;20.20;99.90
37002;DHT22;22913;51.910;8.374;2022-10-16T16:59:31;20.10;99.90
37002;DHT22;22913;51.910;8.374;2022-10-16T17:02:18;20.00;99.90
37002;DHT22;22913;51.910;8.374;2022-10-16T17:05:04;20.00;99.90
37002;DHT22;22913;51.910;8.374;2022-10-16T17:07:50;20.00;99.90
37002;DHT22;22913;51.910;8.374;2022-10-16T17:10:42;20.00;99.90
37002;DHT22;22913;51.910;8.374;2022-10-16T17:13:29;19.90;99.90
37002;DHT22;22913;51.910;8.374;2022-10-16T17:16:16;19.80;99.90
37002;DHT22;22913;51.910;8.374;2022-10-16T17:19:05;19.70;99.90
37002;DHT22;22913;51.910;8.374;2022-10-16T17:21:51;19.50;99.90
37002;DHT22;22913;51.910;8.374;2022-10-16T17:24:36;19.50;99.90
37002;DHT22;22913;51.910;8.374;2022-10-16T17:27:22;19.50;99.90
37002;DHT22;22913;51.910;8.374;2022-10-16T17:30:08;19.40;99.90
37002;DHT22;22913;51.910;8.374;2022-10-16T17:32:54;19.30;99.90
37002;DHT22;22913;51.910;8.374;2022-10-16T17:35:42;19.30;99.90
37002;DHT22;22913;51.910;8.374;2022-10-16T17:38:28;19.20;99.90
37002;DHT22;22913;51.910;8.374;2022-10-16T17:41:15;19.10;99.90
37002;DHT22;22913;51.910;8.374;2022-10-16T17:44:01;19.10;99.90
37002;DHT22;22913;51.910;8.374;2022-10-16T17:46:49;18.90;99.90
37002;DHT22;22913;51.910;8.374;2022-10-16T17:49:35;19.00;99.90
37002;DHT22;22913;51.910;8.374;2022-10-16T17:52:21;18.90;99.90